sensor_id;sensor_type;location;lat;lon;timestamp;pressure;altitude;pressure_sealevel;temperature;humidity
24031;BME280;12240;51.142;22.486;2023-01-25T00:00:53;101368.41;;;2.22;100.00
24031;BME280;12240;51.142;22.486;2023-01-25T00:03:21;101364.88;;;2.23;100.00
24031;BME280;12240;51.142;22.486;2023-01-25T00:05:58;101314.44;;;1.87;100.00
24031;BME280;12240;51.142;22.486;2023-01-25T00:08:28;101369.28;;;2.22;100.00
24031;BME280;12240;51.142;22.486;2023-01-25T00:10:56;101332.25;;;2.04;100.00
24031;BME280;12240;51.142;22.486;2023-01-25T00:13:25;101369.22;;;2.24;100.00
24031;BME280;12240;51.142;22.486;2023-01-25T00:16:01;101324.72;;;1.93;100.00
24031;BME280;12240;51.142;22.486;2023-01-25T00:18:30;101322.00;;;1.96;100.00
24031;BME280;12240;51.142;22.486;2023-01-25T00:20:58;101355.38;;;2.19;100.00
24031;BME280;12240;51.142;22.486;2023-01-25T00:23:26;101355.44;;;2.17;100.00
24031;BME280;12240;51.142;22.486;2023-01-25T00:25:57;101352.16;;;2.11;100.00
24031;BME280;12240;51.142;22.486;2023-01-25T00:28:25;101365.03;;;2.18;100.00
24031;BME280;12240;51.142;22.486;2023-01-25T00:30:59;101319.41;;;1.95;100.00
24031;BME280;12240;51.142;22.486;2023-01-25T00:36:38;101348.94;;;2.03;100.00
24031;BME280;12240;51.142;22.486;2023-01-25T00:39:11;101277.50;;;1.66;100.00
24031;BME280;12240;51.142;22.486;2023-01-25T00:41:39;101346.09;;;2.09;100.00
24031;BME280;12240;51.142;22.486;2023-01-25T00:44:10;101292.91;;;1.76;100.00
24031;BME280;12240;51.142;22.486;2023-01-25T00:46:38;101356.25;;;2.19;100.00
24031;BME280;12240;51.142;22.486;2023-01-25T00:49:24;101357.94;;;2.20;100.00
24031;BME280;12240;51.142;22.486;2023-01-25T00:51:53;101350.13;;;2.19;100.00
24031;BME280;12240;51.142;22.486;2023-01-25T00:54:22;101305.41;;;1.96;100.00
24031;BME280;12240;51.142;22.486;2023-01-25T00:56:50;101314.97;;;1.97;100.00
24031;BME280;12240;51.142;22.486;2023-01-25T00:59:24;101307.97;;;1.97;100.00
24031;BME280;12240;51.142;22.486;2023-01-25T01:01:54;101266.72;;;1.75;100.00
24031;BME280;12240;51.142;22.486;2023-01-25T01:04:22;101311.34;;;2.01;100.00
24031;BME280;12240;51.142;22.486;2023-01-25T01:06:54;101341.19;;;2.24;100.00
24031;BME280;12240;51.142;22.486;2023-01-25T01:09:23;101326.19;;;2.02;100.00
24031;BME280;12240;51.142;22.486;2023-01-25T01:11:53;101292.56;;;1.87;100.00
24031;BME280;12240;51.142;22.486;2023-01-25T01:14:22;101335.59;;;2.09;100.00
24031;BME280;12240;51.142;22.486;2023-01-25T01:16:50;101320.69;;;2.09;100.00
24031;BME280;12240;51.142;22.486;2023-01-25T01:19:18;101342.19;;;2.20;100.00
24031;BME280;12240;51.142;22.486;2023-01-25T01:21:47;101293.78;;;2.01;100.00
24031;BME280;12240;51.142;22.486;2023-01-25T01:24:15;101286.94;;;1.97;100.00
24031;BME280;12240;51.142;22.486;2023-01-25T01:26:44;101323.97;;;2.16;100.00
24031;BME280;12240;51.142;22.486;2023-01-25T01:29:13;101196.06;;;1.41;100.00
24031;BME280;12240;51.142;22.486;2023-01-25T01:31:41;101330.84;;;2.18;100.00
24031;BME280;12240;51.142;22.486;2023-01-25T01:34:16;101277.63;;;1.89;100.00
24031;BME280;12240;51.142;22.486;2023-01-25T01:36:45;101302.19;;;2.12;100.00
24031;BME280;12240;51.142;22.486;2023-01-25T01:39:13;101228.53;;;1.65;100.00
24031;BME280;12240;51.142;22.486;2023-01-25T01:41:41;101311.88;;;2.10;100.00
24031;BME280;12240;51.142;22.486;2023-01-25T01:44:47;101322.09;;;2.19;100.00
24031;BME280;12240;51.142;22.486;2023-01-25T01:47:30;101312.63;;;2.14;100.00
24031;BME280;12240;51.142;22.486;2023-01-25T01:50:20;101300.56;;;2.08;100.00
24031;BME280;12240;51.142;22.486;2023-01-25T01:52:51;101290.28;;;2.02;100.00
24031;BME280;12240;51.142;22.486;2023-01-25T01:55:20;101306.56;;;2.12;100.00
24031;BME280;12240;51.142;22.486;2023-01-25T01:57:57;101251.00;;;1.73;100.00
24031;BME280;12240;51.142;22.486;2023-01-25T02:00:31;101305.06;;;2.05;100.00
24031;BME280;12240;51.142;22.486;2023-01-25T02:03:04;101253.22;;;1.85;100.00
24031;BME280;12240;51.142;22.486;2023-01-25T02:06:03;101302.19;;;2.12;100.00
24031;BME280;12240;51.142;22.486;2023-01-25T02:08:34;101258.31;;;1.90;100.00
24031;BME280;12240;51.142;22.486;2023-01-25T02:11:04;101241.19;;;1.78;100.00
24031;BME280;12240;51.142;22.486;2023-01-25T02:13:33;101279.88;;;1.99;100.00
24031;BME280;12240;51.142;22.486;2023-01-25T02:16:13;101229.34;;;1.67;100.00
24031;BME280;12240;51.142;22.486;2023-01-25T02:18:43;101248.03;;;1.84;100.00
24031;BME280;12240;51.142;22.486;2023-01-25T02:21:12;101255.84;;;1.85;100.00
24031;BME280;12240;51.142;22.486;2023-01-25T02:26:09;101248.03;;;1.84;100.00
24031;BME280;12240;51.142;22.486;2023-01-25T02:28:48;101294.34;;;2.11;100.00
24031;BME280;12240;51.142;22.486;2023-01-25T02:31:17;101288.22;;;2.10;100.00
24031;BME280;12240;51.142;22.486;2023-01-25T02:33:45;101288.22;;;2.10;100.00
24031;BME280;12240;51.142;22.486;2023-01-25T02:36:23;101283.97;;;2.08;100.00
24031;BME280;12240;51.142;22.486;2023-01-25T02:39:28;101277.94;;;2.04;100.00
24031;BME280;12240;51.142;22.486;2023-01-25T02:41:56;101236.75;;;1.80;100.00
24031;BME280;12240;51.142;22.486;2023-01-25T02:44:29;101275.47;;;2.00;100.00
24031;BME280;12240;51.142;22.486;2023-01-25T02:47:03;101280.53;;;2.06;100.00
24031;BME280;12240;51.142;22.486;2023-01-25T02:49:35;101270.91;;;2.05;100.00
24031;BME280;12240;51.142;22.486;2023-01-25T02:52:04;101269.41;;;1.98;100.00
24031;BME280;12240;51.142;22.486;2023-01-25T02:54:32;101235.44;;;1.67;100.00
24031;BME280;12240;51.142;22.486;2023-01-25T02:57:05;101233.56;;;1.71;100.00
24031;BME280;12240;51.142;22.486;2023-01-25T02:59:42;101234.50;;;1.70;100.00
24031;BME280;12240;51.142;22.486;2023-01-25T03:02:12;101267.91;;;1.91;100.00
24031;BME280;12240;51.142;22.486;2023-01-25T03:04:42;101271.94;;;2.01;100.00
24031;BME280;12240;51.142;22.486;2023-01-25T03:07:10;101248.59;;;1.92;100.00
24031;BME280;12240;51.142;22.486;2023-01-25T03:09:38;101258.25;;;1.91;100.00
24031;BME280;12240;51.142;22.486;2023-01-25T03:12:07;101258.88;;;1.99;100.00
24031;BME280;12240;51.142;22.486;2023-01-25T03:14:35;101228.00;;;1.80;100.00
24031;BME280;12240;51.142;22.486;2023-01-25T03:17:04;101249.78;;;1.83;100.00
24031;BME280;12240;51.142;22.486;2023-01-25T03:19:32;101265.28;;;1.91;100.00
24031;BME280;12240;51.142;22.486;2023-01-25T03:22:00;101211.41;;;1.53;100.00
24031;BME280;12240;51.142;22.486;2023-01-25T03:24:30;101262.66;;;1.91;100.00
24031;BME280;12240;51.142;22.486;2023-01-25T03:26:58;101212.88;;;1.62;100.00
24031;BME280;12240;51.142;22.486;2023-01-25T03:29:47;101269.56;;;1.93;100.00
24031;BME280;12240;51.142;22.486;2023-01-25T03:32:24;101259.22;;;1.89;100.00
24031;BME280;12240;51.142;22.486;2023-01-25T03:34:53;101209.34;;;1.63;100.00
24031;BME280;12240;51.142;22.486;2023-01-25T03:37:21;101150.91;;;1.32;100.00
24031;BME280;12240;51.142;22.486;2023-01-25T03:39:49;101216.06;;;1.71;100.00
24031;BME280;12240;51.142;22.486;2023-01-25T03:42:20;101253.91;;;1.90;100.00
24031;BME280;12240;51.142;22.486;2023-01-25T03:44:53;101251.59;;;1.81;100.00
24031;BME280;12240;51.142;22.486;2023-01-25T03:47:22;101252.56;;;1.79;100.00
24031;BME280;12240;51.142;22.486;2023-01-25T03:49:51;101249.94;;;1.79;100.00
24031;BME280;12240;51.142;22.486;2023-01-25T03:52:27;101207.09;;;1.52;100.00
24031;BME280;12240;51.142;22.486;2023-01-25T03:55:07;101108.88;;;0.82;100.00
24031;BME280;12240;51.142;22.486;2023-01-25T03:57:39;101198.88;;;1.37;100.00
24031;BME280;12240;51.142;22.486;2023-01-25T04:00:10;101242.47;;;1.67;100.00
24031;BME280;12240;51.142;22.486;2023-01-25T04:02:45;101239.13;;;1.62;100.00
24031;BME280;12240;51.142;22.486;2023-01-25T04:05:18;101150.53;;;1.17;100.00
24031;BME280;12240;51.142;22.486;2023-01-25T04:07:47;101239.03;;;1.65;100.00
24031;BME280;12240;51.142;22.486;2023-01-25T04:10:19;101203.59;;;1.52;100.00
24031;BME280;12240;51.142;22.486;2023-01-25T04:12:48;101219.16;;;1.58;100.00
24031;BME280;12240;51.142;22.486;2023-01-25T04:15:18;101223.47;;;1.59;100.00
24031;BME280;12240;51.142;22.486;2023-01-25T04:17:46;101227.16;;;1.53;100.00
24031;BME280;12240;51.142;22.486;2023-01-25T04:20:22;101220.75;;;1.62;100.00
24031;BME280;12240;51.142;22.486;2023-01-25T04:22:50;101215.59;;;1.59;100.00
24031;BME280;12240;51.142;22.486;2023-01-25T04:25:20;101219.97;;;1.60;100.00
24031;BME280;12240;51.142;22.486;2023-01-25T04:27:52;101220.72;;;1.63;100.00
24031;BME280;12240;51.142;22.486;2023-01-25T04:30:20;101219.91;;;1.61;100.00
24031;BME280;12240;51.142;22.486;2023-01-25T04:32:49;101215.59;;;1.59;100.00
24031;BME280;12240;51.142;22.486;2023-01-25T04:35:23;101222.66;;;1.58;100.00
24031;BME280;12240;51.142;22.486;2023-01-25T04:37:55;101189.13;;;1.40;100.00
24031;BME280;12240;51.142;22.486;2023-01-25T04:40:28;101196.19;;;1.38;100.00
24031;BME280;12240;51.142;22.486;2023-01-25T04:42:56;101224.59;;;1.52;100.00
24031;BME280;12240;51.142;22.486;2023-01-25T04:45:25;101216.94;;;1.46;100.00
24031;BME280;12240;51.142;22.486;2023-01-25T04:47:57;101220.44;;;1.46;100.00
24031;BME280;12240;51.142;22.486;2023-01-25T04:50:27;101222.91;;;1.51;100.00
24031;BME280;12240;51.142;22.486;2023-01-25T04:52:55;101215.97;;;1.48;100.00
24031;BME280;12240;51.142;22.486;2023-01-25T04:55:24;101205.50;;;1.47;100.00
24031;BME280;12240;51.142;22.486;2023-01-25T04:57:55;101202.88;;;1.47;100.00
24031;BME280;12240;51.142;22.486;2023-01-25T05:00:23;101159.91;;;1.25;100.00
24031;BME280;12240;51.142;22.486;2023-01-25T05:02:51;101206.22;;;1.52;100.00
24031;BME280;12240;51.142;22.486;2023-01-25T05:05:19;101215.72;;;1.56;100.00
24031;BME280;12240;51.142;22.486;2023-01-25T05:07:48;101209.47;;;1.60;100.00
24031;BME280;12240;51.142;22.486;2023-01-25T05:10:16;101203.50;;;1.55;100.00
24031;BME280;12240;51.142;22.486;2023-01-25T05:13:04;101146.19;;;1.16;100.00
24031;BME280;12240;51.142;22.486;2023-01-25T05:15:33;101202.09;;;1.45;100.00
24031;BME280;12240;51.142;22.486;2023-01-25T05:18:02;101190.69;;;1.46;100.00
24031;BME280;12240;51.142;22.486;2023-01-25T05:20:32;101208.84;;;1.52;100.00
24031;BME280;12240;51.142;22.486;2023-01-25T05:23:01;101160.81;;;1.24;100.00
24031;BME280;12240;51.142;22.486;2023-01-25T05:25:31;101207.09;;;1.52;100.00
24031;BME280;12240;51.142;22.486;2023-01-25T05:28:25;101159.97;;;1.23;100.00
24031;BME280;12240;51.142;22.486;2023-01-25T05:31:13;101199.38;;;1.48;100.00
24031;BME280;12240;51.142;22.486;2023-01-25T05:33:42;101208.09;;;1.48;100.00
24031;BME280;12240;51.142;22.486;2023-01-25T05:36:10;101209.00;;;1.47;100.00
24031;BME280;12240;51.142;22.486;2023-01-25T05:38:38;101064.81;;;0.66;100.00
24031;BME280;12240;51.142;22.486;2023-01-25T05:41:09;101154.06;;;1.16;100.00
24031;BME280;12240;51.142;22.486;2023-01-25T05:43:37;101160.72;;;1.27;100.00
24031;BME280;12240;51.142;22.486;2023-01-25T05:46:06;101200.06;;;1.53;100.00
24031;BME280;12240;51.142;22.486;2023-01-25T05:48:37;101204.34;;;1.55;100.00
24031;BME280;12240;51.142;22.486;2023-01-25T05:51:08;101205.97;;;1.59;100.00
24031;BME280;12240;51.142;22.486;2023-01-25T05:53:38;101190.53;;;1.50;100.00
24031;BME280;12240;51.142;22.486;2023-01-25T05:56:09;101204.41;;;1.54;100.00
24031;BME280;12240;51.142;22.486;2023-01-25T05:58:38;101196.75;;;1.48;100.00
24031;BME280;12240;51.142;22.486;2023-01-25T06:01:07;101204.63;;;1.48;100.00
24031;BME280;12240;51.142;22.486;2023-01-25T06:03:46;101178.56;;;1.42;100.00
24031;BME280;12240;51.142;22.486;2023-01-25T06:06:40;101177.97;;;1.34;100.00
24031;BME280;12240;51.142;22.486;2023-01-25T06:09:10;101193.38;;;1.44;100.00
24031;BME280;12240;51.142;22.486;2023-01-25T06:11:42;101208.75;;;1.55;100.00
24031;BME280;12240;51.142;22.486;2023-01-25T06:14:11;101212.28;;;1.54;100.00
24031;BME280;12240;51.142;22.486;2023-01-25T06:16:40;101165.81;;;1.31;100.00
24031;BME280;12240;51.142;22.486;2023-01-25T06:19:27;101147.00;;;1.18;100.00
24031;BME280;12240;51.142;22.486;2023-01-25T06:22:09;101186.44;;;1.42;100.00
24031;BME280;12240;51.142;22.486;2023-01-25T06:24:37;101192.50;;;1.44;100.00
24031;BME280;12240;51.142;22.486;2023-01-25T06:27:05;101188.19;;;1.43;100.00
24031;BME280;12240;51.142;22.486;2023-01-25T06:34:14;101160.66;;;1.28;100.00
24031;BME280;12240;51.142;22.486;2023-01-25T06:36:42;101073.97;;;0.80;100.00
24031;BME280;12240;51.142;22.486;2023-01-25T06:39:11;101193.09;;;1.52;100.00
24031;BME280;12240;51.142;22.486;2023-01-25T06:41:39;101177.44;;;1.49;100.00
24031;BME280;12240;51.142;22.486;2023-01-25T06:44:08;101186.03;;;1.54;100.00
24031;BME280;12240;51.142;22.486;2023-01-25T06:46:36;101133.78;;;1.22;100.00
24031;BME280;12240;51.142;22.486;2023-01-25T06:49:04;101188.88;;;1.48;100.00
24031;BME280;12240;51.142;22.486;2023-01-25T06:51:32;101173.19;;;1.46;100.00
24031;BME280;12240;51.142;22.486;2023-01-25T06:54:02;101121.13;;;1.08;100.00
24031;BME280;12240;51.142;22.486;2023-01-25T06:56:31;101134.31;;;1.31;100.00
24031;BME280;12240;51.142;22.486;2023-01-25T06:58:59;101145.44;;;1.39;100.00
24031;BME280;12240;51.142;22.486;2023-01-25T07:01:27;101161.16;;;1.64;100.00
24031;BME280;12240;51.142;22.486;2023-01-25T07:03:58;101161.97;;;1.66;100.00
24031;BME280;12240;51.142;22.486;2023-01-25T07:06:31;101131.19;;;1.46;100.00
24031;BME280;12240;51.142;22.486;2023-01-25T07:09:09;101168.84;;;1.70;100.00
24031;BME280;12240;51.142;22.486;2023-01-25T07:11:37;101099.31;;;1.32;100.00
24031;BME280;12240;51.142;22.486;2023-01-25T07:14:05;101145.41;;;1.64;100.00
24031;BME280;12240;51.142;22.486;2023-01-25T07:16:34;101158.16;;;1.74;100.00
24031;BME280;12240;51.142;22.486;2023-01-25T07:19:06;101152.09;;;1.72;100.00
24031;BME280;12240;51.142;22.486;2023-01-25T07:21:37;101153.16;;;1.68;100.00
24031;BME280;12240;51.142;22.486;2023-01-25T07:24:05;101157.41;;;1.71;100.00
24031;BME280;12240;51.142;22.486;2023-01-25T07:26:34;101113.28;;;1.57;100.00
24031;BME280;12240;51.142;22.486;2023-01-25T07:29:02;101150.22;;;1.76;100.00
24031;BME280;12240;51.142;22.486;2023-01-25T07:31:31;101108.66;;;1.64;100.00
24031;BME280;12240;51.142;22.486;2023-01-25T07:33:59;101129.97;;;1.79;100.00
24031;BME280;12240;51.142;22.486;2023-01-25T07:36:27;101147.28;;;1.85;100.00
24031;BME280;12240;51.142;22.486;2023-01-25T07:38:57;101142.09;;;1.83;100.00
24031;BME280;12240;51.142;22.486;2023-01-25T07:41:26;101106.03;;;1.64;100.00
24031;BME280;12240;51.142;22.486;2023-01-25T07:43:54;101136.66;;;1.88;100.00
24031;BME280;12240;51.142;22.486;2023-01-25T07:46:36;101134.84;;;1.90;100.00
24031;BME280;12240;51.142;22.486;2023-01-25T07:49:05;101104.91;;;1.71;100.00
24031;BME280;12240;51.142;22.486;2023-01-25T07:51:33;101122.16;;;1.78;100.00
24031;BME280;12240;51.142;22.486;2023-01-25T07:54:03;101092.50;;;1.51;100.00
24031;BME280;12240;51.142;22.486;2023-01-25T07:56:36;101089.91;;;1.50;100.00
24031;BME280;12240;51.142;22.486;2023-01-25T08:03:37;101118.19;;;1.91;100.00
24031;BME280;12240;51.142;22.486;2023-01-25T08:06:06;101134.53;;;1.99;100.00
24031;BME280;12240;51.142;22.486;2023-01-25T08:08:39;101081.06;;;1.77;100.00
24031;BME280;12240;51.142;22.486;2023-01-25T08:11:18;101123.88;;;2.02;100.00
24031;BME280;12240;51.142;22.486;2023-01-25T08:18:01;101063.25;;;1.85;100.00
24031;BME280;12240;51.142;22.486;2023-01-25T08:20:38;101077.81;;;1.93;100.00
24031;BME280;12240;51.142;22.486;2023-01-25T08:23:06;101056.22;;;1.85;100.00
24031;BME280;12240;51.142;22.486;2023-01-25T08:25:35;101101.59;;;2.12;100.00
24031;BME280;12240;51.142;22.486;2023-01-25T08:28:04;101098.81;;;2.16;100.00
24031;BME280;12240;51.142;22.486;2023-01-25T08:30:32;101076.53;;;2.03;100.00
24031;BME280;12240;51.142;22.486;2023-01-25T08:33:00;101068.84;;;1.99;100.00
24031;BME280;12240;51.142;22.486;2023-01-25T08:35:30;101093.38;;;2.21;100.00
24031;BME280;12240;51.142;22.486;2023-01-25T08:37:58;101096.06;;;2.19;100.00
24031;BME280;12240;51.142;22.486;2023-01-25T08:40:26;101084.47;;;2.25;100.00
24031;BME280;12240;51.142;22.486;2023-01-25T08:42:54;101055.97;;;1.91;100.00
24031;BME280;12240;51.142;22.486;2023-01-25T08:45:22;101061.84;;;1.98;100.00
24031;BME280;12240;51.142;22.486;2023-01-25T08:47:50;101079.69;;;2.13;100.00
24031;BME280;12240;51.142;22.486;2023-01-25T08:50:18;101078.75;;;2.14;100.00
24031;BME280;12240;51.142;22.486;2023-01-25T08:52:46;101072.56;;;2.16;100.00
24031;BME280;12240;51.142;22.486;2023-01-25T08:55:14;101078.56;;;2.18;100.00
24031;BME280;12240;51.142;22.486;2023-01-25T08:57:42;101099.31;;;2.26;100.00
24031;BME280;12240;51.142;22.486;2023-01-25T09:00:12;101063.19;;;2.09;100.00
24031;BME280;12240;51.142;22.486;2023-01-25T09:02:40;101080.50;;;2.15;100.00
24031;BME280;12240;51.142;22.486;2023-01-25T09:05:08;101069.69;;;1.76;100.00
24031;BME280;12240;51.142;22.486;2023-01-25T09:07:37;101082.66;;;2.04;100.00
24031;BME280;12240;51.142;22.486;2023-01-25T09:10:07;101078.88;;;2.11;100.00
24031;BME280;12240;51.142;22.486;2023-01-25T09:12:36;101091.03;;;2.13;100.00
24031;BME280;12240;51.142;22.486;2023-01-25T09:15:04;101058.88;;;2.07;100.00
24031;BME280;12240;51.142;22.486;2023-01-25T09:17:33;101063.94;;;2.13;100.00
24031;BME280;12240;51.142;22.486;2023-01-25T09:20:08;101059.47;;;2.15;100.00
24031;BME280;12240;51.142;22.486;2023-01-25T09:22:37;101000.22;;;1.85;100.00
24031;BME280;12240;51.142;22.486;2023-01-25T09:25:08;101068.94;;;2.19;100.00
24031;BME280;12240;51.142;22.486;2023-01-25T09:27:36;101050.41;;;2.22;100.00
24031;BME280;12240;51.142;22.486;2023-01-25T09:30:07;100998.59;;;2.04;100.00
24031;BME280;12240;51.142;22.486;2023-01-25T09:32:49;100988.63;;;2.12;100.00
24031;BME280;12240;51.142;22.486;2023-01-25T09:35:18;101042.84;;;2.58;100.00
24031;BME280;12240;51.142;22.486;2023-01-25T09:37:50;100985.63;;;2.21;100.00
24031;BME280;12240;51.142;22.486;2023-01-25T09:40:25;100989.72;;;2.28;100.00
24031;BME280;12240;51.142;22.486;2023-01-25T09:42:59;101037.34;;;2.64;100.00
24031;BME280;12240;51.142;22.486;2023-01-25T09:45:33;101036.22;;;2.69;100.00
24031;BME280;12240;51.142;22.486;2023-01-25T09:48:11;101031.63;;;2.74;100.00
24031;BME280;12240;51.142;22.486;2023-01-25T09:53:41;101016.97;;;2.69;100.00
24031;BME280;12240;51.142;22.486;2023-01-25T09:56:32;100974.56;;;2.34;100.00
24031;BME280;12240;51.142;22.486;2023-01-25T09:59:07;100952.50;;;2.38;100.00
24031;BME280;12240;51.142;22.486;2023-01-25T10:04:39;100966.00;;;2.29;100.00
24031;BME280;12240;51.142;22.486;2023-01-25T10:07:21;100950.66;;;2.41;100.00
24031;BME280;12240;51.142;22.486;2023-01-25T10:10:10;100946.97;;;2.45;100.00
24031;BME280;12240;51.142;22.486;2023-01-25T10:12:41;100979.56;;;2.82;100.00
24031;BME280;12240;51.142;22.486;2023-01-25T10:15:27;100969.91;;;2.83;100.00
24031;BME280;12240;51.142;22.486;2023-01-25T10:21:20;100981.72;;;2.93;100.00
24031;BME280;12240;51.142;22.486;2023-01-25T10:30:11;100960.25;;;2.83;100.00
24031;BME280;12240;51.142;22.486;2023-01-25T10:32:41;100959.75;;;2.74;100.00
24031;BME280;12240;51.142;22.486;2023-01-25T10:35:30;100950.75;;;2.39;100.00
24031;BME280;12240;51.142;22.486;2023-01-25T10:38:34;100935.41;;;2.28;100.00
24031;BME280;12240;51.142;22.486;2023-01-25T10:41:17;100899.25;;;1.92;100.00
24031;BME280;12240;51.142;22.486;2023-01-25T10:43:47;100947.75;;;2.05;100.00
24031;BME280;12240;51.142;22.486;2023-01-25T10:46:36;100941.88;;;1.98;100.00
24031;BME280;12240;51.142;22.486;2023-01-25T10:49:49;100933.25;;;1.95;100.00
24031;BME280;12240;51.142;22.486;2023-01-25T10:52:24;100942.47;;;2.05;100.00
24031;BME280;12240;51.142;22.486;2023-01-25T10:55:20;100937.47;;;2.20;100.00
24031;BME280;12240;51.142;22.486;2023-01-25T10:57:56;100934.25;;;2.35;100.00
24031;BME280;12240;51.142;22.486;2023-01-25T11:00:40;100909.22;;;2.25;100.00
24031;BME280;12240;51.142;22.486;2023-01-25T11:03:20;100930.53;;;2.39;100.00
24031;BME280;12240;51.142;22.486;2023-01-25T11:05:56;100900.81;;;2.17;100.00
24031;BME280;12240;51.142;22.486;2023-01-25T11:08:48;100872.72;;;1.98;100.00
24031;BME280;12240;51.142;22.486;2023-01-25T11:11:32;100905.22;;;1.95;100.00
24031;BME280;12240;51.142;22.486;2023-01-25T11:14:16;100920.94;;;1.97;100.00
24031;BME280;12240;51.142;22.486;2023-01-25T11:16:47;100915.00;;;1.92;100.00
24031;BME280;12240;51.142;22.486;2023-01-25T11:19:41;100910.31;;;1.78;100.00
24031;BME280;12240;51.142;22.486;2023-01-25T11:22:21;100865.50;;;1.38;100.00
24031;BME280;12240;51.142;22.486;2023-01-25T11:24:52;100861.75;;;1.67;100.00
24031;BME280;12240;51.142;22.486;2023-01-25T11:27:26;100911.22;;;1.99;100.00
24031;BME280;12240;51.142;22.486;2023-01-25T11:30:16;100903.47;;;1.96;100.00
24031;BME280;12240;51.142;22.486;2023-01-25T11:32:46;100898.16;;;1.97;100.00
24031;BME280;12240;51.142;22.486;2023-01-25T11:35:31;100910.88;;;2.06;100.00
24031;BME280;12240;51.142;22.486;2023-01-25T11:38:26;100865.69;;;1.98;100.00
24031;BME280;12240;51.142;22.486;2023-01-25T11:41:19;100894.69;;;2.17;100.00
24031;BME280;12240;51.142;22.486;2023-01-25T11:49:58;100820.59;;;2.29;100.00
24031;BME280;12240;51.142;22.486;2023-01-25T12:07:01;100841.75;;;2.46;100.00
24031;BME280;12240;51.142;22.486;2023-01-25T12:28:05;100821.13;;;2.57;100.00
24031;BME280;12240;51.142;22.486;2023-01-25T12:30:41;100827.69;;;2.67;100.00
24031;BME280;12240;51.142;22.486;2023-01-25T12:36:02;100813.47;;;2.71;100.00
24031;BME280;12240;51.142;22.486;2023-01-25T12:39:09;100789.88;;;2.70;100.00
24031;BME280;12240;51.142;22.486;2023-01-25T12:45:18;100798.84;;;2.84;100.00
24031;BME280;12240;51.142;22.486;2023-01-25T12:47:55;100790.16;;;2.82;100.00
24031;BME280;12240;51.142;22.486;2023-01-25T12:50:38;100795.38;;;2.84;100.00
24031;BME280;12240;51.142;22.486;2023-01-25T12:53:28;100794.59;;;2.82;100.00
24031;BME280;12240;51.142;22.486;2023-01-25T12:55:59;100780.56;;;2.81;100.00
24031;BME280;12240;51.142;22.486;2023-01-25T12:58:46;100783.91;;;2.85;100.00
24031;BME280;12240;51.142;22.486;2023-01-25T13:04:49;100781.66;;;2.96;100.00
24031;BME280;12240;51.142;22.486;2023-01-25T13:07:36;100756.41;;;2.73;100.00
24031;BME280;12240;51.142;22.486;2023-01-25T13:10:17;100772.94;;;2.75;100.00
24031;BME280;12240;51.142;22.486;2023-01-25T13:13:01;100765.00;;;2.77;100.00
24031;BME280;12240;51.142;22.486;2023-01-25T13:21:01;100741.59;;;2.52;100.00
24031;BME280;12240;51.142;22.486;2023-01-25T13:23:43;100759.31;;;2.67;100.00
24031;BME280;12240;51.142;22.486;2023-01-25T13:28:53;100777.53;;;2.90;100.00
24031;BME280;12240;51.142;22.486;2023-01-25T13:37:33;100751.50;;;2.84;100.00
24031;BME280;12240;51.142;22.486;2023-01-25T13:40:31;100747.66;;;2.73;100.00
24031;BME280;12240;51.142;22.486;2023-01-25T13:43:05;100741.69;;;2.69;100.00
24031;BME280;12240;51.142;22.486;2023-01-25T13:45:46;100667.25;;;2.30;100.00
24031;BME280;12240;51.142;22.486;2023-01-25T13:48:24;100744.00;;;2.75;100.00
24031;BME280;12240;51.142;22.486;2023-01-25T13:51:02;100736.56;;;2.66;100.00
24031;BME280;12240;51.142;22.486;2023-01-25T13:53:32;100744.31;;;2.69;100.00
24031;BME280;12240;51.142;22.486;2023-01-25T13:56:02;100736.41;;;2.69;100.00
24031;BME280;12240;51.142;22.486;2023-01-25T13:58:34;100711.94;;;2.30;100.00
24031;BME280;12240;51.142;22.486;2023-01-25T14:01:15;100715.63;;;2.26;100.00
24031;BME280;12240;51.142;22.486;2023-01-25T14:04:04;100687.25;;;2.14;100.00
24031;BME280;12240;51.142;22.486;2023-01-25T14:06:37;100682.47;;;2.03;100.00
24031;BME280;12240;51.142;22.486;2023-01-25T14:09:18;100700.25;;;2.17;100.00
24031;BME280;12240;51.142;22.486;2023-01-25T14:11:55;100709.72;;;2.21;100.00
24031;BME280;12240;51.142;22.486;2023-01-25T14:17:15;100726.53;;;2.17;100.00
24031;BME280;12240;51.142;22.486;2023-01-25T14:19:47;100715.91;;;2.00;100.00
24031;BME280;12240;51.142;22.486;2023-01-25T14:22:21;100669.38;;;1.83;100.00
24031;BME280;12240;51.142;22.486;2023-01-25T14:25:14;100712.00;;;2.08;100.00
24031;BME280;12240;51.142;22.486;2023-01-25T14:30:32;100694.88;;;2.00;100.00
24031;BME280;12240;51.142;22.486;2023-01-25T14:33:30;100663.53;;;1.77;100.00
24031;BME280;12240;51.142;22.486;2023-01-25T14:36:13;100704.56;;;1.99;100.00
24031;BME280;12240;51.142;22.486;2023-01-25T14:38:52;100683.72;;;1.95;100.00
24031;BME280;12240;51.142;22.486;2023-01-25T14:41:40;100695.22;;;2.12;100.00
24031;BME280;12240;51.142;22.486;2023-01-25T14:44:26;100660.31;;;1.90;100.00
24031;BME280;12240;51.142;22.486;2023-01-25T14:47:31;100679.91;;;2.02;100.00
24031;BME280;12240;51.142;22.486;2023-01-25T14:50:36;100627.94;;;1.70;100.00
24031;BME280;12240;51.142;22.486;2023-01-25T14:53:24;100631.09;;;1.78;100.00
24031;BME280;12240;51.142;22.486;2023-01-25T14:55:53;100610.03;;;1.59;100.00
24031;BME280;12240;51.142;22.486;2023-01-25T14:58:23;100644.28;;;1.76;100.00